sensor_id;sensor_type;location;lat;lon;timestamp;pressure;altitude;pressure_sealevel;temperature;humidity
11692;BME280;33659;42.672;23.354;2023-03-31T00:00:57;94292.53;;;11.79;45.50
11692;BME280;33659;42.672;23.354;2023-03-31T00:03:25;94312.06;;;11.97;45.58
11692;BME280;33659;42.672;23.354;2023-03-31T00:05:54;94311.31;;;11.97;45.16
11692;BME280;33659;42.672;23.354;2023-03-31T00:08:22;94316.81;;;12.07;45.16
11692;BME280;33659;42.672;23.354;2023-03-31T00:10:49;94323.13;;;12.22;44.36
11692;BME280;33659;42.672;23.354;2023-03-31T00:13:16;94308.03;;;12.15;44.59
11692;BME280;33659;42.672;23.354;2023-03-31T00:15:44;94319.63;;;12.30;44.47
11692;BME280;33659;42.672;23.354;2023-03-31T00:18:11;94302.78;;;12.31;44.91
11692;BME280;33659;42.672;23.354;2023-03-31T00:20:38;94316.13;;;12.42;45.15
11692;BME280;33659;42.672;23.354;2023-03-31T00:23:07;94314.03;;;12.32;45.29
11692;BME280;33659;42.672;23.354;2023-03-31T00:25:37;94297.41;;;12.24;45.19
11692;BME280;33659;42.672;23.354;2023-03-31T00:28:05;94316.06;;;12.38;45.44
11692;BME280;33659;42.672;23.354;2023-03-31T00:30:31;94311.47;;;12.35;45.91
11692;BME280;33659;42.672;23.354;2023-03-31T00:32:59;94299.31;;;12.27;45.65
11692;BME280;33659;42.672;23.354;2023-03-31T00:35:26;94298.22;;;12.28;45.88
11692;BME280;33659;42.672;23.354;2023-03-31T00:37:53;94321.28;;;12.38;46.27
11692;BME280;33659;42.672;23.354;2023-03-31T00:40:22;94302.53;;;12.36;46.43
11692;BME280;33659;42.672;23.354;2023-03-31T00:42:49;94312.69;;;12.38;46.14
11692;BME280;33659;42.672;23.354;2023-03-31T00:45:24;94301.84;;;12.39;46.36
11692;BME280;33659;42.672;23.354;2023-03-31T00:47:54;94304.47;;;12.39;46.34
11692;BME280;33659;42.672;23.354;2023-03-31T00:50:27;94306.75;;;12.41;46.46
11692;BME280;33659;42.672;23.354;2023-03-31T00:52:57;94283.78;;;12.34;46.19
11692;BME280;33659;42.672;23.354;2023-03-31T00:55:30;94288.41;;;12.41;45.88
11692;BME280;33659;42.672;23.354;2023-03-31T00:57:59;94283.44;;;12.52;45.53
11692;BME280;33659;42.672;23.354;2023-03-31T01:00:29;94278.19;;;12.52;44.72
11692;BME280;33659;42.672;23.354;2023-03-31T01:02:58;94285.69;;;12.53;45.11
11692;BME280;33659;42.672;23.354;2023-03-31T01:05:33;94270.59;;;12.46;44.87
11692;BME280;33659;42.672;23.354;2023-03-31T01:08:04;94287.31;;;12.58;44.92
11692;BME280;33659;42.672;23.354;2023-03-31T01:10:33;94275.31;;;12.57;44.34
11692;BME280;33659;42.672;23.354;2023-03-31T01:13:07;94274.88;;;12.55;45.37
11692;BME280;33659;42.672;23.354;2023-03-31T01:15:35;94289.06;;;12.54;44.99
11692;BME280;33659;42.672;23.354;2023-03-31T01:18:02;94268.72;;;12.47;45.47
11692;BME280;33659;42.672;23.354;2023-03-31T01:20:38;94226.22;;;12.18;45.73
11692;BME280;33659;42.672;23.354;2023-03-31T01:23:31;94275.16;;;12.50;45.28
11692;BME280;33659;42.672;23.354;2023-03-31T01:26:43;94271.44;;;12.51;45.10
11692;BME280;33659;42.672;23.354;2023-03-31T01:29:34;94278.94;;;12.52;45.44
11692;BME280;33659;42.672;23.354;2023-03-31T01:32:20;94286.72;;;12.48;45.42
11692;BME280;33659;42.672;23.354;2023-03-31T01:35:24;94291.03;;;12.41;46.45
11692;BME280;33659;42.672;23.354;2023-03-31T01:38:26;94278.56;;;12.18;46.50
11692;BME280;33659;42.672;23.354;2023-03-31T01:43:58;94293.59;;;12.06;46.85
11692;BME280;33659;42.672;23.354;2023-03-31T01:46:32;94296.22;;;12.06;46.88
11692;BME280;33659;42.672;23.354;2023-03-31T01:49:07;94297.72;;;12.07;46.88
11692;BME280;33659;42.672;23.354;2023-03-31T01:51:45;94310.81;;;12.07;46.57
11692;BME280;33659;42.672;23.354;2023-03-31T01:54:19;94308.44;;;12.02;46.78
11692;BME280;33659;42.672;23.354;2023-03-31T01:56:49;94302.63;;;12.08;46.59
11692;BME280;33659;42.672;23.354;2023-03-31T01:59:23;94309.31;;;12.06;47.53
11692;BME280;33659;42.672;23.354;2023-03-31T02:01:55;94314.38;;;11.99;49.04
11692;BME280;33659;42.672;23.354;2023-03-31T02:04:28;94315.44;;;11.82;49.10
11692;BME280;33659;42.672;23.354;2023-03-31T02:07:00;94317.44;;;11.73;49.19
11692;BME280;33659;42.672;23.354;2023-03-31T02:09:32;94311.09;;;11.74;49.78
11692;BME280;33659;42.672;23.354;2023-03-31T02:12:03;94309.88;;;11.71;50.00
11692;BME280;33659;42.672;23.354;2023-03-31T02:14:32;94315.53;;;11.85;50.29
11692;BME280;33659;42.672;23.354;2023-03-31T02:17:03;94324.66;;;11.91;50.28
11692;BME280;33659;42.672;23.354;2023-03-31T02:19:36;94336.31;;;11.94;49.97
11692;BME280;33659;42.672;23.354;2023-03-31T02:22:07;94341.59;;;11.98;50.61
11692;BME280;33659;42.672;23.354;2023-03-31T02:24:35;94326.06;;;11.89;50.46
11692;BME280;33659;42.672;23.354;2023-03-31T02:27:08;94349.22;;;12.03;49.92
11692;BME280;33659;42.672;23.354;2023-03-31T02:29:38;94333.56;;;11.90;49.67
11692;BME280;33659;42.672;23.354;2023-03-31T02:32:10;94356.66;;;12.01;49.57
11692;BME280;33659;42.672;23.354;2023-03-31T02:34:39;94346.47;;;11.83;49.43
11692;BME280;33659;42.672;23.354;2023-03-31T02:37:05;94326.06;;;11.33;51.06
11692;BME280;33659;42.672;23.354;2023-03-31T02:39:34;94376.56;;;11.49;52.18
11692;BME280;33659;42.672;23.354;2023-03-31T02:42:02;94370.16;;;11.47;53.52
11692;BME280;33659;42.672;23.354;2023-03-31T02:44:33;94356.44;;;11.37;54.64
11692;BME280;33659;42.672;23.354;2023-03-31T02:47:00;94343.84;;;11.27;57.08
11692;BME280;33659;42.672;23.354;2023-03-31T02:49:27;94361.69;;;11.37;56.61
11692;BME280;33659;42.672;23.354;2023-03-31T02:52:04;94366.09;;;11.21;56.41
11692;BME280;33659;42.672;23.354;2023-03-31T02:55:04;94351.47;;;11.20;57.95
11692;BME280;33659;42.672;23.354;2023-03-31T03:00:50;94336.47;;;11.17;59.00
11692;BME280;33659;42.672;23.354;2023-03-31T03:03:29;94337.56;;;11.16;59.04
11692;BME280;33659;42.672;23.354;2023-03-31T03:06:03;94321.75;;;11.25;58.99
11692;BME280;33659;42.672;23.354;2023-03-31T03:08:37;94314.00;;;11.28;58.19
11692;BME280;33659;42.672;23.354;2023-03-31T03:11:13;94304.00;;;11.18;58.31
11692;BME280;33659;42.672;23.354;2023-03-31T03:13:45;94309.63;;;11.32;56.79
11692;BME280;33659;42.672;23.354;2023-03-31T03:16:18;94305.69;;;11.38;56.79
11692;BME280;33659;42.672;23.354;2023-03-31T03:18:55;94305.44;;;11.44;56.93
11692;BME280;33659;42.672;23.354;2023-03-31T03:21:22;94293.31;;;11.51;56.69
11692;BME280;33659;42.672;23.354;2023-03-31T03:23:49;94280.16;;;11.48;56.24
11692;BME280;33659;42.672;23.354;2023-03-31T03:26:17;94265.47;;;11.43;56.31
11692;BME280;33659;42.672;23.354;2023-03-31T03:28:46;94297.91;;;11.70;57.14
11692;BME280;33659;42.672;23.354;2023-03-31T03:31:13;94284.06;;;11.70;58.13
11692;BME280;33659;42.672;23.354;2023-03-31T03:33:41;94273.53;;;11.66;57.55
11692;BME280;33659;42.672;23.354;2023-03-31T03:36:08;94285.34;;;11.76;57.52
11692;BME280;33659;42.672;23.354;2023-03-31T03:38:35;94285.34;;;11.76;57.53
11692;BME280;33659;42.672;23.354;2023-03-31T03:41:03;94267.22;;;11.67;58.26
11692;BME280;33659;42.672;23.354;2023-03-31T03:43:30;94279.19;;;11.68;57.93
11692;BME280;33659;42.672;23.354;2023-03-31T03:45:56;94264.41;;;11.60;57.80
11692;BME280;33659;42.672;23.354;2023-03-31T03:48:23;94277.66;;;11.67;58.41
11692;BME280;33659;42.672;23.354;2023-03-31T03:50:52;94273.94;;;11.68;58.34
11692;BME280;33659;42.672;23.354;2023-03-31T03:53:19;94262.03;;;11.55;59.11
11692;BME280;33659;42.672;23.354;2023-03-31T03:55:46;94270.25;;;11.69;59.48
11692;BME280;33659;42.672;23.354;2023-03-31T03:58:14;94273.94;;;11.68;59.46
11692;BME280;33659;42.672;23.354;2023-03-31T04:00:41;94281.13;;;11.71;59.93
11692;BME280;33659;42.672;23.354;2023-03-31T04:03:09;94262.63;;;11.64;60.43
11692;BME280;33659;42.672;23.354;2023-03-31T04:05:36;94281.63;;;11.61;60.01
11692;BME280;33659;42.672;23.354;2023-03-31T04:08:04;94288.19;;;11.55;59.47
11692;BME280;33659;42.672;23.354;2023-03-31T04:10:33;94273.19;;;11.39;59.77
11692;BME280;33659;42.672;23.354;2023-03-31T04:13:01;94291.19;;;11.41;60.10
11692;BME280;33659;42.672;23.354;2023-03-31T04:15:27;94288.81;;;11.36;60.80
11692;BME280;33659;42.672;23.354;2023-03-31T04:17:54;94272.00;;;11.21;60.94
11692;BME280;33659;42.672;23.354;2023-03-31T04:20:22;94277.50;;;11.32;60.61
11692;BME280;33659;42.672;23.354;2023-03-31T04:22:52;94293.00;;;11.53;60.77
11692;BME280;33659;42.672;23.354;2023-03-31T04:25:20;94290.88;;;11.58;60.27
11692;BME280;33659;42.672;23.354;2023-03-31T04:27:48;94287.69;;;11.65;60.94
11692;BME280;33659;42.672;23.354;2023-03-31T04:30:19;94278.50;;;11.71;61.36
11692;BME280;33659;42.672;23.354;2023-03-31T04:32:49;94284.59;;;11.75;61.21
11692;BME280;33659;42.672;23.354;2023-03-31T04:35:16;94284.69;;;11.79;60.57
11692;BME280;33659;42.672;23.354;2023-03-31T04:37:45;94286.22;;;11.80;60.46
11692;BME280;33659;42.672;23.354;2023-03-31T04:40:12;94291.13;;;11.81;60.91
11692;BME280;33659;42.672;23.354;2023-03-31T04:42:41;94262.63;;;11.64;60.87
11692;BME280;33659;42.672;23.354;2023-03-31T04:45:09;94271.94;;;11.77;61.13
11692;BME280;33659;42.672;23.354;2023-03-31T04:47:36;94265.81;;;11.85;61.75
11692;BME280;33659;42.672;23.354;2023-03-31T04:50:04;94263.63;;;11.87;61.73
11692;BME280;33659;42.672;23.354;2023-03-31T04:52:31;94264.63;;;11.83;61.31
11692;BME280;33659;42.672;23.354;2023-03-31T04:54:58;94277.34;;;11.84;60.58
11692;BME280;33659;42.672;23.354;2023-03-31T04:57:25;94260.13;;;11.68;60.95
11692;BME280;33659;42.672;23.354;2023-03-31T04:59:53;94264.66;;;11.71;61.28
11692;BME280;33659;42.672;23.354;2023-03-31T05:02:19;94258.84;;;11.77;61.26
11692;BME280;33659;42.672;23.354;2023-03-31T05:04:48;94261.59;;;11.81;61.09
11692;BME280;33659;42.672;23.354;2023-03-31T05:07:15;94271.06;;;11.85;61.19
11692;BME280;33659;42.672;23.354;2023-03-31T05:09:42;94271.63;;;11.95;61.34
11692;BME280;33659;42.672;23.354;2023-03-31T05:12:10;94265.06;;;12.01;61.44
11692;BME280;33659;42.672;23.354;2023-03-31T05:14:36;94244.63;;;11.90;61.79
11692;BME280;33659;42.672;23.354;2023-03-31T05:17:04;94241.34;;;11.93;61.25
11692;BME280;33659;42.672;23.354;2023-03-31T05:19:31;94253.22;;;12.07;61.53
11692;BME280;33659;42.672;23.354;2023-03-31T05:21:58;94239.28;;;12.03;61.51
11692;BME280;33659;42.672;23.354;2023-03-31T05:24:25;94244.28;;;12.08;61.65
11692;BME280;33659;42.672;23.354;2023-03-31T05:26:54;94243.88;;;12.06;62.10
11692;BME280;33659;42.672;23.354;2023-03-31T05:29:22;94236.34;;;12.04;61.83
11692;BME280;33659;42.672;23.354;2023-03-31T05:31:49;94227.84;;;11.91;62.18
11692;BME280;33659;42.672;23.354;2023-03-31T05:34:19;94225.97;;;11.92;62.19
11692;BME280;33659;42.672;23.354;2023-03-31T05:36:45;94256.19;;;11.89;62.34
11692;BME280;33659;42.672;23.354;2023-03-31T05:39:14;94230.25;;;11.84;62.69
11692;BME280;33659;42.672;23.354;2023-03-31T05:41:41;94219.53;;;11.74;63.20
11692;BME280;33659;42.672;23.354;2023-03-31T05:44:08;94223.72;;;11.78;63.06
11692;BME280;33659;42.672;23.354;2023-03-31T05:46:34;94230.25;;;11.84;62.56
11692;BME280;33659;42.672;23.354;2023-03-31T05:49:01;94237.44;;;11.87;62.69
11692;BME280;33659;42.672;23.354;2023-03-31T05:51:29;94233.63;;;11.85;62.96
11692;BME280;33659;42.672;23.354;2023-03-31T05:53:56;94236.44;;;11.92;62.85
11692;BME280;33659;42.672;23.354;2023-03-31T05:56:23;94243.25;;;11.97;62.75
11692;BME280;33659;42.672;23.354;2023-03-31T05:58:52;94251.03;;;12.09;62.06
11692;BME280;33659;42.672;23.354;2023-03-31T06:01:19;94257.38;;;12.24;61.22
11692;BME280;33659;42.672;23.354;2023-03-31T06:03:48;94243.75;;;12.34;60.83
11692;BME280;33659;42.672;23.354;2023-03-31T06:06:15;94239.63;;;12.33;60.52
11692;BME280;33659;42.672;23.354;2023-03-31T06:08:45;94241.47;;;12.32;60.37
11692;BME280;33659;42.672;23.354;2023-03-31T06:11:14;94235.81;;;12.30;60.10
11692;BME280;33659;42.672;23.354;2023-03-31T06:13:41;94242.84;;;12.26;60.53
11692;BME280;33659;42.672;23.354;2023-03-31T06:16:09;94241.06;;;12.30;60.43
11692;BME280;33659;42.672;23.354;2023-03-31T06:18:37;94230.91;;;12.29;60.00
11692;BME280;33659;42.672;23.354;2023-03-31T06:21:04;94250.81;;;12.49;59.80
11692;BME280;33659;42.672;23.354;2023-03-31T06:23:31;94246.06;;;12.55;59.89
11692;BME280;33659;42.672;23.354;2023-03-31T06:26:02;94225.41;;;12.50;60.07
11692;BME280;33659;42.672;23.354;2023-03-31T06:28:29;94219.41;;;12.33;60.31
11692;BME280;33659;42.672;23.354;2023-03-31T06:31:00;94235.03;;;12.45;60.70
11692;BME280;33659;42.672;23.354;2023-03-31T06:33:27;94224.31;;;12.35;60.59
11692;BME280;33659;42.672;23.354;2023-03-31T06:35:54;94252.56;;;12.61;60.56
11692;BME280;33659;42.672;23.354;2023-03-31T06:38:22;94251.53;;;12.65;60.18
11692;BME280;33659;42.672;23.354;2023-03-31T06:40:49;94238.63;;;12.57;60.35
11692;BME280;33659;42.672;23.354;2023-03-31T06:43:21;94250.03;;;12.64;60.65
11692;BME280;33659;42.672;23.354;2023-03-31T06:45:48;94237.78;;;12.53;60.44
11692;BME280;33659;42.672;23.354;2023-03-31T06:48:14;94191.13;;;12.23;60.46
11692;BME280;33659;42.672;23.354;2023-03-31T06:50:41;94246.16;;;12.42;61.06
11692;BME280;33659;42.672;23.354;2023-03-31T06:53:08;94257.78;;;12.61;60.72
11692;BME280;33659;42.672;23.354;2023-03-31T06:55:35;94253.06;;;12.66;60.36
11692;BME280;33659;42.672;23.354;2023-03-31T06:58:03;94245.28;;;12.89;59.82
11692;BME280;33659;42.672;23.354;2023-03-31T07:00:31;94244.06;;;12.83;59.92
11692;BME280;33659;42.672;23.354;2023-03-31T07:03:02;94231.94;;;12.59;60.20
11692;BME280;33659;42.672;23.354;2023-03-31T07:05:31;94231.28;;;12.62;60.37
11692;BME280;33659;42.672;23.354;2023-03-31T07:07:58;94235.34;;;12.79;60.38
11692;BME280;33659;42.672;23.354;2023-03-31T07:10:28;94210.66;;;12.80;60.31
11692;BME280;33659;42.672;23.354;2023-03-31T07:12:55;94205.41;;;12.99;59.38
11692;BME280;33659;42.672;23.354;2023-03-31T07:15:24;94209.91;;;12.80;59.20
11692;BME280;33659;42.672;23.354;2023-03-31T07:17:55;94189.13;;;12.52;59.31
11692;BME280;33659;42.672;23.354;2023-03-31T07:20:27;94194.38;;;12.52;60.19
11692;BME280;33659;42.672;23.354;2023-03-31T07:22:53;94174.22;;;12.56;59.80
11692;BME280;33659;42.672;23.354;2023-03-31T07:25:20;94171.56;;;12.52;58.39
11692;BME280;33659;42.672;23.354;2023-03-31T07:27:47;94137.69;;;12.24;58.95
11692;BME280;33659;42.672;23.354;2023-03-31T07:30:15;94172.69;;;12.35;60.25
11692;BME280;33659;42.672;23.354;2023-03-31T07:32:44;94190.75;;;12.56;58.35
11692;BME280;33659;42.672;23.354;2023-03-31T07:35:13;94181.16;;;12.64;58.74
11692;BME280;33659;42.672;23.354;2023-03-31T07:37:41;94184.41;;;12.77;57.92
11692;BME280;33659;42.672;23.354;2023-03-31T07:40:10;94139.25;;;12.64;55.19
11692;BME280;33659;42.672;23.354;2023-03-31T07:42:39;94169.78;;;12.95;54.24
11692;BME280;33659;42.672;23.354;2023-03-31T07:45:08;94203.53;;;13.19;52.94
11692;BME280;33659;42.672;23.354;2023-03-31T07:47:35;94184.72;;;13.33;52.17
11692;BME280;33659;42.672;23.354;2023-03-31T07:50:03;94166.69;;;13.32;51.34
11692;BME280;33659;42.672;23.354;2023-03-31T07:52:31;94126.75;;;13.19;51.07
11692;BME280;33659;42.672;23.354;2023-03-31T07:54:58;94146.03;;;13.49;50.91
11692;BME280;33659;42.672;23.354;2023-03-31T07:57:25;94175.75;;;13.80;50.56
11692;BME280;33659;42.672;23.354;2023-03-31T07:59:51;94174.28;;;13.82;49.97
11692;BME280;33659;42.672;23.354;2023-03-31T08:02:18;94178.66;;;13.75;49.71
11692;BME280;33659;42.672;23.354;2023-03-31T08:04:46;94167.50;;;13.81;49.96
11692;BME280;33659;42.672;23.354;2023-03-31T08:07:14;94176.53;;;13.84;49.49
11692;BME280;33659;42.672;23.354;2023-03-31T08:09:44;94164.53;;;14.09;49.33
11692;BME280;33659;42.672;23.354;2023-03-31T08:12:14;94153.03;;;14.18;48.55
11692;BME280;33659;42.672;23.354;2023-03-31T08:14:41;94138.16;;;14.29;48.26
11692;BME280;33659;42.672;23.354;2023-03-31T08:17:08;94161.47;;;14.30;48.00
11692;BME280;33659;42.672;23.354;2023-03-31T08:19:35;94152.88;;;14.33;47.58
11692;BME280;33659;42.672;23.354;2023-03-31T08:22:02;94120.78;;;14.17;47.49
11692;BME280;33659;42.672;23.354;2023-03-31T08:24:29;94178.78;;;14.35;47.32
11692;BME280;33659;42.672;23.354;2023-03-31T08:26:57;94132.34;;;14.13;47.47
11692;BME280;33659;42.672;23.354;2023-03-31T08:29:24;94120.31;;;14.12;47.56
11692;BME280;33659;42.672;23.354;2023-03-31T08:31:53;94109.22;;;13.95;47.69
11692;BME280;33659;42.672;23.354;2023-03-31T08:34:20;94157.13;;;14.15;47.60
11692;BME280;33659;42.672;23.354;2023-03-31T08:36:47;94127.97;;;13.97;46.94
11692;BME280;33659;42.672;23.354;2023-03-31T08:39:14;94142.84;;;14.13;47.24
11692;BME280;33659;42.672;23.354;2023-03-31T08:41:50;94118.31;;;14.01;46.91
11692;BME280;33659;42.672;23.354;2023-03-31T08:44:25;94138.28;;;14.09;47.28
11692;BME280;33659;42.672;23.354;2023-03-31T08:46:57;94141.81;;;14.21;46.95
11692;BME280;33659;42.672;23.354;2023-03-31T08:49:25;94115.38;;;14.06;47.30
11692;BME280;33659;42.672;23.354;2023-03-31T08:51:56;94099.97;;;14.05;47.21
11692;BME280;33659;42.672;23.354;2023-03-31T08:54:30;94118.31;;;14.01;46.91
11692;BME280;33659;42.672;23.354;2023-03-31T08:57:01;94122.97;;;13.85;46.98
11692;BME280;33659;42.672;23.354;2023-03-31T08:59:32;94121.75;;;14.05;47.32
11692;BME280;33659;42.672;23.354;2023-03-31T09:02:04;94135.16;;;14.00;47.20
11692;BME280;33659;42.672;23.354;2023-03-31T09:04:48;94135.16;;;14.00;47.22
11692;BME280;33659;42.672;23.354;2023-03-31T09:07:24;94139.28;;;13.98;47.08
11692;BME280;33659;42.672;23.354;2023-03-31T09:10:05;94119.25;;;13.90;46.92
11692;BME280;33659;42.672;23.354;2023-03-31T09:12:44;94049.25;;;13.44;46.92
11692;BME280;33659;42.672;23.354;2023-03-31T09:15:21;94121.38;;;14.07;46.39
11692;BME280;33659;42.672;23.354;2023-03-31T09:17:54;94107.94;;;14.12;46.62
11692;BME280;33659;42.672;23.354;2023-03-31T09:20:25;94129.72;;;14.13;46.25
11692;BME280;33659;42.672;23.354;2023-03-31T09:22:57;94091.63;;;14.26;45.93
11692;BME280;33659;42.672;23.354;2023-03-31T09:25:30;94150.50;;;14.51;45.50
11692;BME280;33659;42.672;23.354;2023-03-31T09:27:59;94085.25;;;14.57;45.03
11692;BME280;33659;42.672;23.354;2023-03-31T09:30:30;94103.50;;;14.76;45.10
11692;BME280;33659;42.672;23.354;2023-03-31T09:33:08;94113.72;;;14.85;44.90
11692;BME280;33659;42.672;23.354;2023-03-31T09:35:37;94108.19;;;14.97;44.20
11692;BME280;33659;42.672;23.354;2023-03-31T09:38:04;94145.16;;;15.11;43.97
11692;BME280;33659;42.672;23.354;2023-03-31T09:40:31;94129.28;;;15.01;44.00
11692;BME280;33659;42.672;23.354;2023-03-31T09:42:59;94104.69;;;15.23;44.27
11692;BME280;33659;42.672;23.354;2023-03-31T09:45:29;94119.88;;;15.40;43.78
11692;BME280;33659;42.672;23.354;2023-03-31T09:48:00;94107.88;;;15.43;43.43
11692;BME280;33659;42.672;23.354;2023-03-31T09:50:28;94105.13;;;15.29;43.31
11692;BME280;33659;42.672;23.354;2023-03-31T09:52:57;94067.22;;;15.33;43.06
11692;BME280;33659;42.672;23.354;2023-03-31T09:55:26;94128.97;;;15.50;43.08
11692;BME280;33659;42.672;23.354;2023-03-31T09:57:54;94095.88;;;15.49;43.11
11692;BME280;33659;42.672;23.354;2023-03-31T10:00:22;94093.13;;;15.79;43.06
11692;BME280;33659;42.672;23.354;2023-03-31T10:02:52;94078.47;;;15.82;42.66
11692;BME280;33659;42.672;23.354;2023-03-31T10:05:27;94072.19;;;16.01;42.30
11692;BME280;33659;42.672;23.354;2023-03-31T10:08:18;94095.91;;;16.08;42.30
11692;BME280;33659;42.672;23.354;2023-03-31T10:10:48;94068.41;;;16.02;41.75
11692;BME280;33659;42.672;23.354;2023-03-31T10:13:18;94064.72;;;16.13;41.09
11692;BME280;33659;42.672;23.354;2023-03-31T10:15:46;94097.75;;;16.00;41.69
11692;BME280;33659;42.672;23.354;2023-03-31T10:18:17;94047.63;;;15.79;41.45
11692;BME280;33659;42.672;23.354;2023-03-31T10:20:48;94069.47;;;15.90;42.00
11692;BME280;33659;42.672;23.354;2023-03-31T10:23:17;94067.69;;;16.08;41.99
11692;BME280;33659;42.672;23.354;2023-03-31T10:25:49;94039.50;;;16.16;41.45
11692;BME280;33659;42.672;23.354;2023-03-31T10:28:18;94058.84;;;16.52;41.08
11692;BME280;33659;42.672;23.354;2023-03-31T10:30:48;94058.81;;;16.41;40.77
11692;BME280;33659;42.672;23.354;2023-03-31T10:33:19;94060.75;;;16.59;40.66
11692;BME280;33659;42.672;23.354;2023-03-31T10:35:47;94026.44;;;16.48;40.90
11692;BME280;33659;42.672;23.354;2023-03-31T10:38:23;94018.84;;;16.25;41.35
11692;BME280;33659;42.672;23.354;2023-03-31T10:40:53;94064.06;;;16.34;40.85
11692;BME280;33659;42.672;23.354;2023-03-31T10:43:25;94002.59;;;16.05;41.14
11692;BME280;33659;42.672;23.354;2023-03-31T10:45:53;94025.97;;;16.14;41.49
11692;BME280;33659;42.672;23.354;2023-03-31T10:48:25;94040.69;;;16.29;41.21
11692;BME280;33659;42.672;23.354;2023-03-31T10:50:53;94015.41;;;16.14;41.57
11692;BME280;33659;42.672;23.354;2023-03-31T10:53:20;94030.56;;;16.31;41.08
11692;BME280;33659;42.672;23.354;2023-03-31T10:56:03;94025.72;;;16.58;41.64
11692;BME280;33659;42.672;23.354;2023-03-31T10:58:46;94005.03;;;16.64;42.07
11692;BME280;33659;42.672;23.354;2023-03-31T11:01:27;94016.34;;;16.64;42.14
11692;BME280;33659;42.672;23.354;2023-03-31T11:04:15;94023.91;;;16.73;41.87
11692;BME280;33659;42.672;23.354;2023-03-31T11:06:53;94012.94;;;16.60;42.25
11692;BME280;33659;42.672;23.354;2023-03-31T11:09:33;94009.97;;;16.72;41.99
11692;BME280;33659;42.672;23.354;2023-03-31T11:12:07;94003.19;;;16.71;42.19
11692;BME280;33659;42.672;23.354;2023-03-31T11:14:54;93998.69;;;16.75;41.50
11692;BME280;33659;42.672;23.354;2023-03-31T11:17:33;93989.63;;;16.76;41.25
11692;BME280;33659;42.672;23.354;2023-03-31T11:20:13;93994.91;;;16.76;40.59
11692;BME280;33659;42.672;23.354;2023-03-31T11:22:49;93978.28;;;16.58;40.86
11692;BME280;33659;42.672;23.354;2023-03-31T11:25:34;93995.66;;;16.73;40.46
11692;BME280;33659;42.672;23.354;2023-03-31T11:28:28;93967.00;;;16.68;40.76
11692;BME280;33659;42.672;23.354;2023-03-31T11:31:09;93984.75;;;16.86;40.61
11692;BME280;33659;42.672;23.354;2023-03-31T11:33:47;93966.66;;;16.77;40.75
11692;BME280;33659;42.672;23.354;2023-03-31T11:36:25;93941.38;;;16.58;41.04
11692;BME280;33659;42.672;23.354;2023-03-31T11:39:07;93954.59;;;16.87;41.18
11692;BME280;33659;42.672;23.354;2023-03-31T11:41:40;93955.75;;;16.96;41.15
11692;BME280;33659;42.672;23.354;2023-03-31T11:44:11;93976.81;;;16.93;41.09
11692;BME280;33659;42.672;23.354;2023-03-31T11:46:40;93979.47;;;16.75;40.66
11692;BME280;33659;42.672;23.354;2023-03-31T11:49:15;93961.38;;;16.73;41.08
11692;BME280;33659;42.672;23.354;2023-03-31T11:51:48;93955.34;;;16.87;40.82
11692;BME280;33659;42.672;23.354;2023-03-31T11:54:21;93942.91;;;16.73;41.05
11692;BME280;33659;42.672;23.354;2023-03-31T11:56:50;93938.03;;;16.86;41.24
11692;BME280;33659;42.672;23.354;2023-03-31T11:59:19;93936.16;;;16.83;41.11
11692;BME280;33659;42.672;23.354;2023-03-31T12:01:53;93942.91;;;16.81;41.30
11692;BME280;33659;42.672;23.354;2023-03-31T12:04:29;93931.25;;;16.89;41.30
11692;BME280;33659;42.672;23.354;2023-03-31T12:07:03;93936.88;;;17.05;41.06
11692;BME280;33659;42.672;23.354;2023-03-31T12:09:42;93918.00;;;17.24;40.58
11692;BME280;33659;42.672;23.354;2023-03-31T12:12:15;93922.47;;;17.56;40.06
11692;BME280;33659;42.672;23.354;2023-03-31T12:14:50;93920.16;;;17.79;39.48
11692;BME280;33659;42.672;23.354;2023-03-31T12:17:22;93865.84;;;17.75;39.26
11692;BME280;33659;42.672;23.354;2023-03-31T12:19:53;93879.72;;;17.90;38.37
11692;BME280;33659;42.672;23.354;2023-03-31T12:22:25;93856.34;;;17.92;38.36
11692;BME280;33659;42.672;23.354;2023-03-31T12:24:54;93903.97;;;18.44;38.33
11692;BME280;33659;42.672;23.354;2023-03-31T12:27:24;93909.22;;;18.51;38.18
11692;BME280;33659;42.672;23.354;2023-03-31T12:29:55;93917.16;;;18.51;38.41
11692;BME280;33659;42.672;23.354;2023-03-31T12:32:26;93901.44;;;18.22;38.55
11692;BME280;33659;42.672;23.354;2023-03-31T12:34:57;93905.31;;;18.07;38.59
11692;BME280;33659;42.672;23.354;2023-03-31T12:40:48;93890.41;;;17.65;39.43
11692;BME280;33659;42.672;23.354;2023-03-31T12:46:32;93876.56;;;18.16;38.22
11692;BME280;33659;42.672;23.354;2023-03-31T12:49:28;93913.66;;;18.61;37.73
11692;BME280;33659;42.672;23.354;2023-03-31T12:52:01;93865.84;;;18.89;36.59
11692;BME280;33659;42.672;23.354;2023-03-31T12:54:52;93882.94;;;19.19;36.37
11692;BME280;33659;42.672;23.354;2023-03-31T12:57:25;93877.50;;;19.37;35.98
11692;BME280;33659;42.672;23.354;2023-03-31T13:00:16;93841.09;;;19.44;35.95
11692;BME280;33659;42.672;23.354;2023-03-31T13:02:45;93855.09;;;19.79;35.54
11692;BME280;33659;42.672;23.354;2023-03-31T13:05:44;93843.63;;;20.16;35.11
11692;BME280;33659;42.672;23.354;2023-03-31T13:08:48;93857.41;;;20.31;34.78
11692;BME280;33659;42.672;23.354;2023-03-31T13:11:16;93845.97;;;20.11;34.96
11692;BME280;33659;42.672;23.354;2023-03-31T13:13:56;93842.50;;;20.14;34.83
11692;BME280;33659;42.672;23.354;2023-03-31T13:16:25;93835.91;;;20.25;34.36
11692;BME280;33659;42.672;23.354;2023-03-31T13:18:52;93812.84;;;20.49;34.11
11692;BME280;33659;42.672;23.354;2023-03-31T13:21:21;93815.00;;;20.78;33.81
11692;BME280;33659;42.672;23.354;2023-03-31T13:23:48;93786.00;;;20.67;33.73